createdAt,value
2017-07-19T00:01:55.126Z,9.68
2017-07-19T00:04:21.189Z,9.97
2017-07-19T00:06:47.267Z,9.73
2017-07-19T00:09:13.332Z,10.30
2017-07-19T00:11:39.484Z,9.88
2017-07-19T00:14:05.567Z,6.60
2017-07-19T00:16:31.652Z,7.10
2017-07-19T00:18:57.736Z,10.48
2017-07-19T00:21:23.794Z,10.90
2017-07-19T00:23:49.875Z,9.27
2017-07-19T00:26:16.012Z,7.28
2017-07-19T00:28:42.081Z,9.40
2017-07-19T00:31:08.155Z,10.53
2017-07-19T00:33:34.307Z,8.93
2017-07-19T00:36:00.390Z,8.18
2017-07-19T00:38:26.481Z,8.00
2017-07-19T00:40:52.550Z,10.60
2017-07-19T00:43:18.622Z,6.75
2017-07-19T00:45:44.688Z,8.07
2017-07-19T00:48:25.738Z,10.83
2017-07-19T00:50:51.802Z,9.90
2017-07-19T00:53:17.886Z,10.00
2017-07-19T00:55:44.204Z,11.45
2017-07-19T00:58:10.285Z,11.23
2017-07-19T01:00:36.399Z,10.02
2017-07-19T01:03:02.470Z,10.73
2017-07-19T01:05:28.561Z,10.35
2017-07-19T01:07:54.642Z,10.43
2017-07-19T01:10:20.706Z,14.45
2017-07-19T01:12:46.777Z,11.40
2017-07-19T01:15:12.866Z,8.68
2017-07-19T01:31:14.065Z,11.55
2017-07-19T01:33:40.134Z,7.70
2017-07-19T01:36:06.951Z,9.00
2017-07-19T01:38:33.075Z,7.85
2017-07-19T01:40:59.159Z,8.20
2017-07-19T01:43:25.257Z,8.95
2017-07-19T01:45:51.324Z,11.63
2017-07-19T01:48:18.184Z,11.57
2017-07-19T01:50:44.249Z,11.40
2017-07-19T01:53:10.351Z,12.20
2017-07-19T01:55:36.428Z,13.00
2017-07-19T01:58:02.509Z,11.70
2017-07-19T02:00:28.834Z,12.63
2017-07-19T02:02:54.909Z,13.25
2017-07-19T02:05:21.001Z,14.57
2017-07-19T02:07:47.078Z,12.45
2017-07-19T02:10:13.150Z,8.93
2017-07-19T02:12:39.234Z,8.90
2017-07-19T02:15:05.298Z,8.40
2017-07-19T02:17:31.375Z,11.98
2017-07-19T02:20:12.418Z,12.85
2017-07-19T02:22:38.745Z,13.75
2017-07-19T02:25:04.825Z,10.05
2017-07-19T02:27:30.886Z,11.55
2017-07-19T02:29:56.952Z,13.62
2017-07-19T02:32:23.020Z,10.45
2017-07-19T02:34:49.105Z,12.65
2017-07-19T02:37:15.175Z,13.60
2017-07-19T02:39:41.232Z,13.88
2017-07-19T02:42:08.026Z,12.02
2017-07-19T02:44:34.157Z,11.80
2017-07-19T02:47:00.222Z,11.75
2017-07-19T02:49:26.286Z,13.30
2017-07-19T02:51:52.365Z,12.82
2017-07-19T02:54:18.435Z,13.27
2017-07-19T02:56:44.519Z,13.20
2017-07-19T02:59:10.570Z,13.10
2017-07-19T03:01:36.634Z,12.95
2017-07-19T03:04:02.731Z,12.00
2017-07-19T03:06:28.807Z,8.57
2017-07-19T03:08:54.898Z,14.00
2017-07-19T03:11:20.946Z,14.73
2017-07-19T03:13:47.060Z,14.30
2017-07-19T03:16:13.126Z,12.52
2017-07-19T03:18:39.215Z,13.77
2017-07-19T03:21:05.267Z,14.60
2017-07-19T03:23:31.370Z,14.38
2017-07-19T03:25:57.432Z,14.32
2017-07-19T03:28:23.553Z,17.45
2017-07-19T03:30:49.620Z,10.52
2017-07-19T03:33:15.696Z,15.18
2017-07-19T03:35:41.770Z,14.60
2017-07-19T03:38:08.571Z,14.93
2017-07-19T03:40:34.664Z,14.90
2017-07-19T03:43:00.747Z,14.43
2017-07-19T03:45:26.811Z,13.65
2017-07-19T03:47:52.882Z,14.82
2017-07-19T03:50:18.998Z,13.20
2017-07-19T03:52:45.053Z,15.25
2017-07-19T03:55:11.106Z,16.37
2017-07-19T03:57:37.173Z,16.58
2017-07-19T04:00:03.246Z,16.70
2017-07-19T04:02:29.298Z,15.50
2017-07-19T04:04:55.374Z,15.18
2017-07-19T04:07:21.468Z,14.23
2017-07-19T04:09:47.541Z,16.02
2017-07-19T04:12:13.609Z,14.23
2017-07-19T04:14:39.665Z,16.27
2017-07-19T04:17:05.726Z,15.32
2017-07-19T04:20:02.817Z,17.33
2017-07-19T04:22:28.871Z,15.45
2017-07-19T04:24:54.930Z,15.35
2017-07-19T04:27:36.023Z,16.17
2017-07-19T04:30:02.088Z,11.15
2017-07-19T04:32:28.145Z,10.80
2017-07-19T04:34:54.209Z,14.23
2017-07-19T04:37:20.260Z,16.02
2017-07-19T04:39:46.337Z,16.77
2017-07-19T04:42:12.397Z,15.45
2017-07-19T04:44:38.467Z,15.93
2017-07-19T04:47:04.523Z,16.08
2017-07-19T04:49:30.587Z,11.70
2017-07-19T04:51:56.636Z,16.08
2017-07-19T04:54:22.738Z,15.73
2017-07-19T04:56:48.810Z,12.43
2017-07-19T04:59:14.872Z,11.52
2017-07-19T05:01:40.946Z,15.23
2017-07-19T05:04:07.007Z,14.00
2017-07-19T05:06:33.077Z,14.57
2017-07-19T05:08:59.130Z,13.90
2017-07-19T05:11:25.206Z,52.42
2017-07-19T05:13:51.319Z,20.73
2017-07-19T05:16:17.391Z,14.77
2017-07-19T05:18:43.448Z,16.10
2017-07-19T05:21:09.516Z,12.23
2017-07-19T05:23:35.579Z,13.15
2017-07-19T05:26:01.667Z,15.18
2017-07-19T05:28:27.734Z,15.77
2017-07-19T05:30:53.830Z,13.48
2017-07-19T05:33:20.567Z,10.15
2017-07-19T05:35:46.625Z,14.40
2017-07-19T05:38:12.703Z,13.02
2017-07-19T05:40:38.780Z,14.35
2017-07-19T05:43:04.847Z,11.20
2017-07-19T05:45:30.934Z,13.45
2017-07-19T05:47:56.997Z,12.37
2017-07-19T05:50:23.078Z,9.98
2017-07-19T05:52:49.142Z,9.82
2017-07-19T05:55:15.235Z,10.75
2017-07-19T05:57:41.327Z,12.65
2017-07-19T06:00:07.402Z,9.85
2017-07-19T06:02:48.477Z,10.38
2017-07-19T06:05:14.564Z,10.70
2017-07-19T06:07:40.656Z,13.93
2017-07-19T06:10:06.735Z,11.65
2017-07-19T06:12:32.829Z,11.57
2017-07-19T06:14:58.914Z,9.50
2017-07-19T06:17:24.990Z,9.00
2017-07-19T06:19:51.057Z,12.40
2017-07-19T06:22:17.143Z,9.50
2017-07-19T06:24:43.434Z,10.47
2017-07-19T06:27:09.558Z,10.13
2017-07-19T06:29:35.661Z,12.47
2017-07-19T06:32:01.765Z,10.60
2017-07-19T06:34:27.850Z,12.47
2017-07-19T06:36:53.944Z,8.07
2017-07-19T06:39:20.038Z,10.10
2017-07-19T06:41:46.094Z,11.33
2017-07-19T06:44:12.202Z,10.48
2017-07-19T06:46:38.257Z,10.17
2017-07-19T06:49:04.305Z,10.77
2017-07-19T06:51:30.370Z,10.53
2017-07-19T06:53:56.440Z,10.80
2017-07-19T06:56:22.501Z,10.48
2017-07-19T06:58:48.582Z,10.53
2017-07-19T07:01:14.655Z,10.17
2017-07-19T07:03:55.714Z,11.27
2017-07-19T07:06:21.798Z,10.80
2017-07-19T07:08:47.846Z,11.90
2017-07-19T07:11:13.905Z,11.07
2017-07-19T07:13:40.731Z,10.53
2017-07-19T07:16:07.566Z,10.53
2017-07-19T07:18:33.666Z,9.60
2017-07-19T07:20:59.722Z,10.40
2017-07-19T07:23:26.172Z,9.35
2017-07-19T07:25:52.314Z,10.70
2017-07-19T07:28:18.367Z,10.90
2017-07-19T07:30:44.517Z,11.57
2017-07-19T07:33:10.581Z,13.17
2017-07-19T07:35:36.672Z,10.50
2017-07-19T07:38:02.730Z,10.77
2017-07-19T07:40:28.798Z,10.30
2017-07-19T07:42:54.916Z,11.70
2017-07-19T07:45:21.027Z,13.43
2017-07-19T07:47:47.089Z,10.43
2017-07-19T07:50:13.129Z,15.33
2017-07-19T07:52:39.395Z,10.27
2017-07-19T07:55:05.441Z,11.10
2017-07-19T07:57:31.538Z,11.65
2017-07-19T07:59:57.594Z,10.33
2017-07-19T08:02:23.805Z,9.90
2017-07-19T08:04:50.643Z,13.17
2017-07-19T08:07:16.713Z,10.77
2017-07-19T08:09:42.767Z,17.13
2017-07-19T08:12:08.815Z,10.10
2017-07-19T08:14:35.114Z,9.90
2017-07-19T08:17:01.198Z,9.70
2017-07-19T08:19:28.000Z,11.67
2017-07-19T08:21:54.253Z,9.80
2017-07-19T08:24:20.306Z,13.00
2017-07-19T08:26:46.394Z,11.67
2017-07-19T08:29:12.474Z,10.03
2017-07-19T08:31:38.546Z,9.20
2017-07-19T08:34:04.625Z,9.70
2017-07-19T08:36:31.643Z,8.87
2017-07-19T08:38:57.701Z,8.87
2017-07-19T08:41:23.806Z,9.47
2017-07-19T08:43:50.612Z,9.47
2017-07-19T08:46:16.662Z,9.13
2017-07-19T08:48:42.720Z,9.57
2017-07-19T08:51:08.770Z,9.40
2017-07-19T08:53:34.848Z,10.73
2017-07-19T08:56:00.930Z,9.13
2017-07-19T08:58:27.286Z,9.40
2017-07-19T09:00:53.336Z,9.03
2017-07-19T09:03:19.417Z,8.80
2017-07-19T09:05:45.525Z,8.47
2017-07-19T09:08:11.570Z,9.13
2017-07-19T09:10:37.637Z,9.17
2017-07-19T09:13:03.698Z,9.50
2017-07-19T09:15:29.770Z,8.97
2017-07-19T09:17:55.825Z,9.20
2017-07-19T09:20:22.413Z,7.87
2017-07-19T09:22:50.011Z,11.63
2017-07-19T09:25:16.059Z,8.87
2017-07-19T09:27:42.118Z,8.53
2017-07-19T09:42:56.635Z,8.90
2017-07-19T09:45:22.718Z,11.03
2017-07-19T09:47:48.766Z,10.50
2017-07-19T09:50:14.860Z,11.80
2017-07-19T09:52:40.904Z,13.70
2017-07-19T09:55:06.974Z,13.67
2017-07-19T09:57:33.049Z,9.10
2017-07-19T09:59:59.098Z,11.03
2017-07-19T10:02:25.167Z,11.33
2017-07-19T10:04:51.218Z,9.43
2017-07-19T10:07:17.260Z,10.50
2017-07-19T10:09:43.297Z,18.40
2017-07-19T10:12:09.354Z,19.67
2017-07-19T10:14:36.150Z,26.60
2017-07-19T10:17:02.219Z,23.83
2017-07-19T10:19:28.288Z,13.00
2017-07-19T10:21:54.357Z,9.30
2017-07-19T10:24:20.433Z,14.17
2017-07-19T10:26:46.578Z,9.90
2017-07-19T10:29:12.634Z,16.07
2017-07-19T10:31:38.726Z,12.43
2017-07-19T10:34:04.770Z,18.60
2017-07-19T10:36:30.831Z,10.43
2017-07-19T10:38:56.889Z,6.53
2017-07-19T10:41:22.940Z,10.37
2017-07-19T10:43:48.982Z,14.70
2017-07-19T10:46:15.035Z,8.63
2017-07-19T10:48:41.891Z,14.57
2017-07-19T10:51:07.946Z,10.17
2017-07-19T10:53:34.010Z,7.70
2017-07-19T10:56:00.053Z,7.57
2017-07-19T10:58:26.121Z,8.20
2017-07-19T11:00:52.178Z,10.80
2017-07-19T11:03:18.226Z,9.33
2017-07-19T11:05:44.301Z,7.10
2017-07-19T11:08:10.350Z,5.07
2017-07-19T11:10:36.606Z,16.93
2017-07-19T11:13:17.654Z,6.93
2017-07-19T11:15:43.710Z,7.80
2017-07-19T11:18:09.822Z,8.63
2017-07-19T11:20:35.874Z,5.83
2017-07-19T11:23:01.937Z,9.23
2017-07-19T11:25:28.006Z,5.27
2017-07-19T11:27:54.082Z,13.53
2017-07-19T11:30:20.137Z,5.23
2017-07-19T11:32:46.190Z,5.80
2017-07-19T11:35:12.382Z,6.17
2017-07-19T11:37:38.435Z,10.53
2017-07-19T11:40:04.507Z,9.63
2017-07-19T11:42:30.570Z,7.57
2017-07-19T11:44:56.617Z,16.13
2017-07-19T11:47:22.675Z,7.83
2017-07-19T11:49:48.725Z,5.87
2017-07-19T11:52:14.767Z,7.00
2017-07-19T11:54:40.817Z,7.30
2017-07-19T11:57:06.934Z,4.43
2017-07-19T11:59:32.987Z,8.50
2017-07-19T12:01:59.790Z,7.17
2017-07-19T12:04:25.887Z,8.40
2017-07-19T12:06:51.960Z,8.50
2017-07-19T12:09:18.050Z,8.50
2017-07-19T12:11:44.114Z,5.33
2017-07-19T12:14:10.162Z,4.87
2017-07-19T12:16:36.218Z,4.43
2017-07-19T12:19:02.377Z,14.37
2017-07-19T12:21:28.426Z,10.13
2017-07-19T12:23:54.494Z,7.93
2017-07-19T12:26:20.561Z,10.43
2017-07-19T12:28:46.631Z,4.40
2017-07-19T12:31:12.688Z,10.13
2017-07-19T12:33:38.762Z,10.67
2017-07-19T12:36:04.846Z,5.17
2017-07-19T12:38:30.906Z,7.13
2017-07-19T12:40:57.222Z,6.20
2017-07-19T12:43:23.284Z,5.50
2017-07-19T12:45:49.335Z,6.20
2017-07-19T12:48:15.403Z,7.07
2017-07-19T12:50:41.453Z,8.53
2017-07-19T12:53:07.525Z,4.53
2017-07-19T12:55:33.602Z,8.93
2017-07-19T12:57:59.647Z,4.37
2017-07-19T13:00:25.701Z,7.30
2017-07-19T13:03:07.016Z,4.80
2017-07-19T13:05:33.070Z,5.00
2017-07-19T13:07:59.130Z,4.77
2017-07-19T13:10:25.178Z,4.83
2017-07-19T13:12:51.246Z,4.70
2017-07-19T13:15:17.309Z,4.20
2017-07-19T13:17:43.366Z,7.40
2017-07-19T13:20:09.411Z,10.53
2017-07-19T13:22:35.457Z,4.47
2017-07-19T13:25:01.673Z,6.63
2017-07-19T13:27:27.759Z,6.90
2017-07-19T13:29:53.829Z,8.37
2017-07-19T13:32:19.893Z,10.40
2017-07-19T13:34:45.976Z,16.27
2017-07-19T13:37:12.066Z,9.97
2017-07-19T13:39:38.113Z,5.33
2017-07-19T13:42:04.307Z,9.70
2017-07-19T13:44:30.357Z,5.73
2017-07-19T13:46:56.493Z,7.27
2017-07-19T13:49:22.553Z,7.40
2017-07-19T13:51:48.605Z,6.33
2017-07-19T13:54:14.704Z,7.20
2017-07-19T13:56:40.761Z,8.23
2017-07-19T13:59:06.829Z,7.13
2017-07-19T14:01:32.866Z,5.97
2017-07-19T14:03:58.902Z,10.13
2017-07-19T14:06:24.942Z,6.73
2017-07-19T14:08:51.039Z,4.10
2017-07-19T14:11:17.097Z,4.03
2017-07-19T14:13:43.899Z,4.77
2017-07-19T14:16:10.028Z,6.83
2017-07-19T14:18:36.101Z,4.33
2017-07-19T14:21:02.918Z,8.27
2017-07-19T14:23:28.987Z,4.47
2017-07-19T14:26:10.014Z,4.63
2017-07-19T14:28:36.110Z,5.40
2017-07-19T14:31:02.456Z,5.00
2017-07-19T14:33:28.514Z,5.50
2017-07-19T14:35:54.579Z,10.80
2017-07-19T14:38:20.640Z,5.37
2017-07-19T14:40:46.699Z,8.70
2017-07-19T14:43:12.761Z,4.80
2017-07-19T14:45:38.818Z,4.70
2017-07-19T14:48:04.904Z,5.10
2017-07-19T14:50:30.954Z,4.77
2017-07-19T14:52:57.002Z,5.60
2017-07-19T14:55:23.089Z,4.07
2017-07-19T14:57:49.150Z,5.47
2017-07-19T15:00:15.224Z,5.00
2017-07-19T15:02:41.281Z,5.30
2017-07-19T15:05:07.339Z,4.80
2017-07-19T15:07:33.405Z,4.93
2017-07-19T15:09:59.741Z,9.20
2017-07-19T15:12:25.818Z,8.53
2017-07-19T15:14:52.130Z,4.83
2017-07-19T15:17:18.202Z,4.67
2017-07-19T15:19:44.296Z,5.13
2017-07-19T15:22:25.334Z,5.47
2017-07-19T15:24:51.382Z,7.30
2017-07-19T15:27:17.431Z,8.77
2017-07-19T15:29:43.484Z,6.30
2017-07-19T15:32:09.589Z,4.70
2017-07-19T15:34:35.668Z,4.83
2017-07-19T15:37:02.762Z,4.73
2017-07-19T15:39:28.843Z,6.63
2017-07-19T15:41:54.898Z,5.80
2017-07-19T15:44:20.953Z,11.20
2017-07-19T15:46:46.998Z,5.30
2017-07-19T15:49:28.049Z,5.30
2017-07-19T15:51:54.098Z,6.63
2017-07-19T15:54:20.169Z,6.20
2017-07-19T15:56:46.217Z,6.43
2017-07-19T15:59:12.274Z,5.60
2017-07-19T16:01:38.341Z,5.93
2017-07-19T16:04:04.423Z,4.87
2017-07-19T16:06:30.478Z,6.13
2017-07-19T16:08:56.534Z,5.67
2017-07-19T16:11:22.599Z,5.80
2017-07-19T16:13:49.419Z,4.87
2017-07-19T16:16:15.481Z,5.17
2017-07-19T16:18:41.534Z,5.30
2017-07-19T16:21:07.582Z,5.13
2017-07-19T16:23:33.638Z,4.63
2017-07-19T16:25:59.692Z,4.67
2017-07-19T16:28:26.509Z,5.00
2017-07-19T16:30:52.591Z,4.80
2017-07-19T16:33:18.670Z,4.53
2017-07-19T16:35:44.729Z,5.07
2017-07-19T16:38:10.798Z,4.83
2017-07-19T16:40:36.860Z,4.97
2017-07-19T16:43:02.905Z,4.80
2017-07-19T16:45:28.966Z,5.60
2017-07-19T16:47:55.024Z,5.10
2017-07-19T16:50:21.071Z,5.00
2017-07-19T16:52:47.862Z,5.90
2017-07-19T16:55:14.773Z,5.37
2017-07-19T16:57:41.563Z,4.80
2017-07-19T17:00:07.678Z,5.37
2017-07-19T17:02:33.742Z,4.90
2017-07-19T17:04:59.794Z,5.00
2017-07-19T17:07:25.850Z,6.03
2017-07-19T17:09:51.913Z,5.23
2017-07-19T17:12:17.969Z,5.20
2017-07-19T17:14:44.064Z,5.10
2017-07-19T17:17:10.130Z,4.53
2017-07-19T17:19:36.187Z,5.37
2017-07-19T17:22:02.238Z,5.50
2017-07-19T17:24:28.294Z,4.50
2017-07-19T17:26:55.101Z,5.57
2017-07-19T17:29:21.167Z,5.07
2017-07-19T17:31:47.245Z,5.00
2017-07-19T17:34:13.299Z,5.00
2017-07-19T17:36:39.345Z,5.83
2017-07-19T17:39:05.422Z,4.23
2017-07-19T17:41:31.518Z,5.60
2017-07-19T17:43:57.567Z,4.47
2017-07-19T17:46:23.633Z,5.60
2017-07-19T17:48:49.681Z,4.97
2017-07-19T17:51:15.742Z,5.20
2017-07-19T17:53:42.841Z,5.80
2017-07-19T17:56:08.898Z,6.43
2017-07-19T17:58:34.955Z,4.87
2017-07-19T18:01:01.018Z,4.97
2017-07-19T18:03:27.730Z,4.57
2017-07-19T18:05:53.767Z,4.90
2017-07-19T18:08:19.858Z,4.90
2017-07-19T18:10:45.909Z,5.20
2017-07-19T18:13:11.986Z,5.40
2017-07-19T18:15:38.789Z,5.03
2017-07-19T18:18:05.617Z,5.53
2017-07-19T18:20:31.659Z,5.03
2017-07-19T18:22:57.727Z,5.30
2017-07-19T18:25:23.789Z,6.20
2017-07-19T18:27:49.846Z,5.17
2017-07-19T18:30:15.910Z,5.80
2017-07-19T18:32:41.958Z,5.33
2017-07-19T18:35:08.029Z,5.27
2017-07-19T18:37:34.078Z,5.50
2017-07-19T18:40:00.162Z,5.23
2017-07-19T18:42:26.226Z,5.20
2017-07-19T18:44:52.312Z,5.50
2017-07-19T18:47:18.378Z,4.77
2017-07-19T18:49:44.430Z,5.60
2017-07-19T18:52:10.483Z,5.47
2017-07-19T18:54:36.529Z,6.23
2017-07-19T18:57:02.615Z,5.93
2017-07-19T18:59:28.666Z,5.97
2017-07-19T19:01:54.726Z,5.20
2017-07-19T19:04:21.522Z,5.70
2017-07-19T19:06:47.581Z,4.90
2017-07-19T19:09:13.630Z,5.80
2017-07-19T19:11:39.687Z,5.30
2017-07-19T19:14:05.746Z,5.83
2017-07-19T19:16:31.831Z,5.40
2017-07-19T19:18:57.889Z,5.43
2017-07-19T19:21:23.937Z,5.40
2017-07-19T19:23:50.013Z,5.77
2017-07-19T19:26:16.070Z,6.00
2017-07-19T19:28:42.130Z,6.10
2017-07-19T19:31:08.187Z,6.80
2017-07-19T19:33:34.240Z,6.00
2017-07-19T19:36:00.315Z,6.37
2017-07-19T19:38:26.365Z,5.63
2017-07-19T19:40:52.502Z,6.00
2017-07-19T19:43:18.567Z,6.80
2017-07-19T19:45:44.645Z,5.87
2017-07-19T19:48:10.725Z,6.70
2017-07-19T19:50:36.786Z,5.83
2017-07-19T19:53:02.850Z,7.00
2017-07-19T19:55:28.904Z,6.83
2017-07-19T19:57:54.978Z,6.70
2017-07-19T20:00:21.042Z,10.23
2017-07-19T20:02:47.085Z,7.77
2017-07-19T20:05:13.213Z,7.67
2017-07-19T20:07:39.313Z,6.77
2017-07-19T20:10:05.394Z,7.17
2017-07-19T20:12:31.485Z,7.33
2017-07-19T20:14:57.550Z,6.50
2017-07-19T20:17:23.606Z,7.27
2017-07-19T20:19:49.666Z,6.87
2017-07-19T20:22:15.722Z,7.97
2017-07-19T20:24:41.799Z,7.30
2017-07-19T20:27:07.868Z,7.20
2017-07-19T20:29:34.667Z,8.03
2017-07-19T20:32:00.729Z,6.50
2017-07-19T20:34:26.823Z,8.63
2017-07-19T20:36:52.886Z,6.77
2017-07-19T20:39:18.951Z,8.00
2017-07-19T20:41:45.010Z,8.30
2017-07-19T20:44:11.143Z,9.27
2017-07-19T20:46:52.202Z,10.77
2017-07-19T20:49:18.251Z,7.63
2017-07-19T20:51:44.351Z,8.90
2017-07-19T20:54:10.446Z,8.33
2017-07-19T20:56:36.502Z,8.20
2017-07-19T20:59:02.565Z,7.40
2017-07-19T21:01:28.617Z,7.47
2017-07-19T21:03:54.750Z,8.53
2017-07-19T21:06:20.796Z,7.90
2017-07-19T21:08:47.331Z,7.67
2017-07-19T21:11:13.427Z,8.13
2017-07-19T21:13:39.551Z,7.60
2017-07-19T21:16:05.652Z,8.87
2017-07-19T21:18:31.750Z,8.97
2017-07-19T21:20:57.836Z,7.53
2017-07-19T21:23:24.681Z,7.90
2017-07-19T21:25:51.516Z,7.97
2017-07-19T21:28:18.375Z,8.43
2017-07-19T21:30:44.471Z,8.83
2017-07-19T21:33:10.557Z,8.27
2017-07-19T21:35:36.669Z,7.27
2017-07-19T21:38:02.760Z,8.63
2017-07-19T21:40:28.859Z,8.57
2017-07-19T21:42:54.967Z,10.60
2017-07-19T21:45:21.053Z,8.60
2017-07-19T21:47:47.896Z,7.37
2017-07-19T21:50:14.723Z,7.93
2017-07-19T21:52:40.811Z,9.37
2017-07-19T21:55:06.906Z,7.57
2017-07-19T21:57:33.003Z,11.03
2017-07-19T21:59:59.097Z,8.70
2017-07-19T22:02:25.188Z,8.23
2017-07-19T22:04:51.291Z,8.40
2017-07-19T22:07:17.378Z,8.00
2017-07-19T22:09:43.480Z,9.03
2017-07-19T22:12:09.595Z,10.20
2017-07-19T22:14:35.688Z,9.80
2017-07-19T22:17:01.781Z,43.73
2017-07-19T22:19:27.889Z,35.57
2017-07-19T22:21:54.008Z,24.37
2017-07-19T22:24:20.163Z,44.80
2017-07-19T22:26:46.259Z,27.00
2017-07-19T22:29:12.364Z,21.98
2017-07-19T22:31:38.468Z,19.90
2017-07-19T22:34:04.578Z,21.65
2017-07-19T22:36:30.680Z,23.90
2017-07-19T22:38:56.785Z,15.18
2017-07-19T22:41:22.892Z,23.25
2017-07-19T22:43:48.999Z,12.88
2017-07-19T22:46:15.107Z,25.75
2017-07-19T22:48:41.204Z,11.77
2017-07-19T22:51:07.299Z,11.73
2017-07-19T22:53:33.402Z,8.98
2017-07-19T22:55:59.500Z,12.70
2017-07-19T22:58:25.646Z,17.15
2017-07-19T23:00:51.740Z,16.02
2017-07-19T23:03:17.830Z,12.75
2017-07-19T23:05:43.932Z,9.50
2017-07-19T23:08:10.032Z,12.50
2017-07-19T23:10:36.119Z,12.82
2017-07-19T23:13:02.227Z,11.12
2017-07-19T23:15:28.327Z,7.15
2017-07-19T23:17:54.427Z,7.12
2017-07-19T23:20:51.583Z,20.45
2017-07-19T23:23:17.694Z,7.70
2017-07-19T23:25:43.796Z,11.40
2017-07-19T23:28:09.896Z,12.20
2017-07-19T23:30:36.000Z,11.68
2017-07-19T23:33:02.096Z,9.07
2017-07-19T23:35:28.196Z,10.40
2017-07-19T23:37:54.307Z,10.00
2017-07-19T23:40:20.418Z,8.65
2017-07-19T23:42:46.511Z,10.90
2017-07-19T23:45:13.368Z,14.13
2017-07-19T23:47:39.467Z,10.30
2017-07-19T23:50:05.561Z,16.17
2017-07-19T23:52:31.663Z,8.93
2017-07-19T23:54:57.776Z,11.67
2017-07-19T23:57:23.901Z,13.85
2017-07-19T23:59:50.736Z,17.00
